Patton, Missouri
Current Conditions -  °F | °C
As of 3:55 PM on Thursday 23 Oct 2014 (Local Time) from KFAM Reporting Station
Clear Clear  
Wind Chill: 61°   Ceiling: Unl
Heat Index: 61°   Visibility: 10mi
Dew Point: 45°   Wind: 5mph
Humidity: 55%   Direction: 150°SSE
Pressure: 30.13"   Gusts: NA
Location:  37.5°N, 90.01°W
Report Text: KFAM 232055Z AUTO 15004KT 10SM CLR 16/07 A3013 RMK AO1 57024
Loading
Personal Weather Stations






























Interactive Weather Map
Tropical Storm Tracking
New forecast layout! Learn more

10-Day Weather Forecast

Advertisements
Track Severe Weather on mobile